Time;durP1;ratioP1;P1;durP2;ratioP2;P2;SDS_P1;SDS_P2;PMS_P1;PMS_P2;Temp;Humidity;BMP_temperature;BMP_pressure;BME280_temperature;BME280_humidity;BME280_pressure;Samples;Min_cycle;Max_cycle;Signal;HPM_P1;HPM_P2
2021/07/14 00:01:49;;;;;;;;;16.50;16.50;;;;;22.77;57.58;101022.78;5056945;28;51108;-54
2021/07/14 00:04:14;;;;;;;;;22.50;20.75;;;;;22.77;57.24;101021.94;5067434;28;51040;-53
2021/07/14 00:06:40;;;;;;;;;17.50;14.25;;;;;22.74;57.58;101020.47;5056902;28;51220;-54
2021/07/14 00:09:09;;;;;;;;;19.00;16.50;;;;;22.75;57.42;101026.84;5057186;28;51303;-54
2021/07/14 00:11:41;;;;;;;;;17.75;17.75;;;;;22.72;57.20;101025.41;5056474;28;51806;-54
2021/07/14 00:17:17;;;;;;;;;16.75;15.25;;;;;22.71;57.39;101020.09;5076311;28;51017;-54
2021/07/14 00:22:31;;;;;;;;;18.50;15.50;;;;;22.70;57.77;101021.16;5076974;28;51148;-53
2021/07/14 00:24:56;;;;;;;;;17.00;17.00;;;;;22.69;57.18;101016.72;5058083;28;51414;-55
2021/07/14 00:27:24;;;;;;;;;19.75;16.00;;;;;22.68;57.19;101012.28;5075797;28;51135;-55
2021/07/14 00:29:56;;;;;;;;;21.50;17.25;;;;;22.68;57.11;101012.28;5077059;28;51227;-53
2021/07/14 00:32:23;;;;;;;;;15.25;15.25;;;;;22.67;57.14;101016.13;5076032;28;51861;-53
2021/07/14 00:34:48;;;;;;;;;20.25;19.25;;;;;22.65;57.16;101019.13;5074673;28;51175;-53
2021/07/14 00:37:14;;;;;;;;;17.50;16.75;;;;;22.65;57.36;101021.03;5057402;28;51089;-53
2021/07/14 00:39:41;;;;;;;;;20.75;19.00;;;;;22.65;57.47;101029.31;5056652;28;51106;-51
2021/07/14 00:42:07;;;;;;;;;18.50;16.25;;;;;22.64;57.56;101022.13;5056366;28;51801;-54
2021/07/14 00:44:33;;;;;;;;;16.75;14.50;;;;;22.63;57.39;101026.78;5056173;28;51034;-54
2021/07/14 00:47:00;;;;;;;;;17.75;16.75;;;;;22.64;57.55;101027.63;5038805;28;51112;-54
2021/07/14 00:49:27;;;;;;;;;20.50;19.00;;;;;22.62;57.05;101014.06;5054588;28;51145;-54
2021/07/14 00:51:52;;;;;;;;;18.50;18.25;;;;;22.61;57.35;101017.88;5056181;28;52050;-54
2021/07/14 00:54:18;;;;;;;;;17.50;15.00;;;;;22.61;57.29;101022.56;5056146;28;51141;-55
2021/07/14 00:56:45;;;;;;;;;21.00;19.25;;;;;22.60;57.52;101027.25;5056059;28;51009;-53
2021/07/14 00:59:11;;;;;;;;;21.75;17.50;;;;;22.59;57.44;101025.56;5056619;28;51416;-54
2021/07/14 01:01:36;;;;;;;;;21.00;18.25;;;;;22.59;57.33;101033.00;5055621;28;52756;-54
2021/07/14 01:04:17;;;;;;;;;21.00;16.50;;;;;22.58;56.91;101028.56;5067732;28;51022;-51
2021/07/14 01:06:48;;;;;;;;;23.50;17.25;;;;;22.58;57.27;101032.16;5076380;28;51116;-49
2021/07/14 01:09:17;;;;;;;;;19.75;18.25;;;;;22.57;57.25;101033.22;5075897;28;51075;-54
2021/07/14 01:11:46;;;;;;;;;18.75;17.00;;;;;22.57;57.37;101032.38;5075728;28;51738;-53
2021/07/14 01:14:23;;;;;;;;;19.25;18.00;;;;;22.57;57.23;101037.91;5074466;28;51288;-54
2021/07/14 01:17:10;;;;;;;;;20.75;17.75;;;;;22.55;57.03;101040.91;5076221;28;51250;-57
2021/07/14 01:19:41;;;;;;;;;21.25;16.75;;;;;22.54;57.30;101039.22;5074021;28;51015;-54
2021/07/14 01:22:44;;;;;;;;;21.00;18.50;;;;;22.52;56.93;101035.88;5075647;28;51418;-54
2021/07/14 01:25:48;;;;;;;;;20.00;16.25;;;;;22.51;57.33;101036.06;5051664;28;51152;-54
2021/07/14 01:28:16;;;;;;;;;14.50;14.50;;;;;22.50;57.47;101037.97;5034045;28;51664;-54
2021/07/14 01:30:43;;;;;;;;;17.50;15.25;;;;;22.50;57.02;101037.13;5072609;28;51092;-55
2021/07/14 01:33:11;;;;;;;;;17.75;16.00;;;;;22.48;57.25;101040.97;5075139;28;51063;-54
2021/07/14 01:35:44;;;;;;;;;14.50;13.00;;;;;22.48;57.29;101040.13;5069270;28;51424;-53
2021/07/14 01:38:12;;;;;;;;;13.25;11.25;;;;;22.46;57.15;101034.84;5055009;28;50974;-53
2021/07/14 01:40:38;;;;;;;;;18.25;14.00;;;;;22.46;57.09;101043.13;5056417;28;51177;-55
2021/07/14 01:43:04;;;;;;;;;17.50;12.50;;;;;22.46;56.72;101045.06;5055247;28;51380;-54
2021/07/14 01:45:37;;;;;;;;;15.00;12.50;;;;;22.44;56.70;101036.16;5055237;28;51115;-53
2021/07/14 01:48:04;;;;;;;;;16.25;13.50;;;;;22.44;57.05;101031.50;5037078;28;51178;-53
2021/07/14 01:50:32;;;;;;;;;13.25;11.25;;;;;22.44;57.01;101027.88;5056801;28;51414;-54
2021/07/14 01:52:58;;;;;;;;;14.00;12.25;;;;;22.42;56.93;101025.34;5055047;28;51779;-53
2021/07/14 01:55:25;;;;;;;;;14.00;12.75;;;;;22.41;57.09;101029.19;5055024;28;51121;-54
2021/07/14 01:57:52;;;;;;;;;14.75;14.50;;;;;22.40;57.35;101019.19;5055413;28;51212;-53
2021/07/14 02:00:18;;;;;;;;;13.75;13.25;;;;;22.41;56.77;101022.84;5056380;28;51397;-52
2021/07/14 02:02:52;;;;;;;;;14.50;12.50;;;;;22.39;56.67;101012.00;5056127;28;51127;-52
2021/07/14 02:05:19;;;;;;;;;11.75;11.50;;;;;22.40;57.17;101013.69;5075385;28;51170;-55
2021/07/14 02:07:44;;;;;;;;;12.50;10.50;;;;;22.39;56.85;101016.69;5075691;28;51197;-54
2021/07/14 02:10:10;;;;;;;;;14.50;9.00;;;;;22.38;56.99;101007.56;5075623;28;51222;-54
2021/07/14 02:12:39;;;;;;;;;10.75;10.75;;;;;22.37;56.43;101011.38;5060194;28;52154;-53
2021/07/14 02:15:09;;;;;;;;;11.50;9.50;;;;;22.37;56.50;101010.56;5054959;28;51170;-54
2021/07/14 02:17:42;;;;;;;;;9.25;7.75;;;;;22.35;56.62;101013.53;5055006;28;51139;-54
2021/07/14 02:20:09;;;;;;;;;6.50;6.25;;;;;22.34;56.90;101017.38;5037075;28;51035;-54
2021/07/14 02:22:34;;;;;;;;;7.50;7.00;;;;;22.33;56.37;101018.47;5055936;28;51108;-54
2021/07/14 02:25:00;;;;;;;;;8.25;7.75;;;;;22.32;56.30;101005.75;5054610;28;51037;-53
2021/07/14 02:27:26;;;;;;;;;10.50;7.00;;;;;22.32;56.46;101005.75;5055074;28;51138;-53
2021/07/14 02:29:51;;;;;;;;;8.50;8.25;;;;;22.31;56.64;101006.81;5055014;28;51165;-52
2021/07/14 02:32:19;;;;;;;;;7.00;7.00;;;;;22.30;56.54;101015.28;5055540;28;51925;-54
2021/07/14 02:34:47;;;;;;;;;5.50;5.00;;;;;22.30;55.95;101018.94;5054843;28;51094;-54
2021/07/14 02:37:23;;;;;;;;;7.75;7.00;;;;;22.30;56.25;101009.78;5072738;28;51037;-52
2021/07/14 02:39:52;;;;;;;;;7.25;6.00;;;;;22.29;56.34;101014.47;5075215;28;51022;-55
2021/07/14 02:42:28;;;;;;;;;8.50;6.25;;;;;22.27;56.26;101013.84;5074827;28;52017;-55
2021/07/14 02:44:54;;;;;;;;;8.75;7.75;;;;;22.28;56.02;101011.94;5055593;28;51419;-54
2021/07/14 02:47:21;;;;;;;;;6.50;5.00;;;;;22.26;55.91;101025.97;5054626;28;51069;-55
2021/07/14 02:49:47;;;;;;;;;7.75;5.75;;;;;22.26;56.10;101023.19;5054826;28;51157;-53
2021/07/14 02:52:14;;;;;;;;;6.25;6.00;;;;;22.25;55.65;101026.19;5054254;28;51864;-55
2021/07/14 02:54:43;;;;;;;;;6.50;6.00;;;;;22.24;55.73;101016.25;5067859;28;51193;-54
2021/07/14 02:57:12;;;;;;;;;4.75;4.75;;;;;22.22;55.63;101027.50;5074624;28;51164;-52
2021/07/14 02:59:40;;;;;;;;;4.75;4.75;;;;;22.21;56.12;101034.09;5075143;28;51142;-54
2021/07/14 03:02:07;;;;;;;;;7.00;7.00;;;;;22.19;55.86;101025.19;5074406;28;51819;-51
2021/07/14 03:04:36;;;;;;;;;4.75;4.25;;;;;22.19;55.54;101030.69;5068110;28;51091;-55
2021/07/14 03:07:08;;;;;;;;;6.00;5.00;;;;;22.18;55.71;101027.09;5054680;28;51069;-53
2021/07/14 03:09:38;;;;;;;;;5.50;4.00;;;;;22.17;55.65;101024.56;5054497;28;51180;-53
2021/07/14 03:12:07;;;;;;;;;5.50;5.50;;;;;22.17;56.06;101024.56;5054635;28;51115;-51
2021/07/14 03:14:36;;;;;;;;;5.50;5.00;;;;;22.16;55.92;101032.00;5058902;28;51318;-49
2021/07/14 03:17:02;;;;;;;;;4.00;4.00;;;;;22.16;56.05;101031.16;5057826;28;51074;-54
2021/07/14 03:19:28;;;;;;;;;5.50;5.50;;;;;22.15;55.92;101030.31;5058004;28;51031;-54
2021/07/14 03:21:54;;;;;;;;;8.25;6.00;;;;;22.14;55.57;101023.13;5057890;28;52075;-54
2021/07/14 03:24:19;;;;;;;;;6.00;6.00;;;;;22.14;55.99;101027.81;5057753;28;51122;-55
2021/07/14 03:26:45;;;;;;;;;6.00;6.00;;;;;22.13;55.53;101028.88;5058640;28;51190;-55
2021/07/14 03:29:12;;;;;;;;;4.25;4.25;;;;;22.13;55.35;101039.91;5057963;28;51009;-53
2021/07/14 03:31:40;;;;;;;;;5.00;5.00;;;;;22.12;55.92;101043.75;5070578;27;51903;-53
2021/07/14 03:34:05;;;;;;;;;5.00;5.00;;;;;22.11;55.22;101031.03;5077722;28;51111;-54
2021/07/14 03:36:31;;;;;;;;;8.75;6.50;;;;;22.11;55.29;101044.81;5066369;28;51170;-54
2021/07/14 03:39:00;;;;;;;;;6.50;5.50;;;;;22.10;55.85;101043.97;5057829;28;51196;-53
2021/07/14 03:41:26;;;;;;;;;4.50;4.50;;;;;22.09;55.23;101057.97;5057377;28;51100;-53
2021/07/14 03:43:54;;;;;;;;;4.00;4.00;;;;;22.10;55.59;101059.69;5057646;28;51206;-53
2021/07/14 03:46:20;;;;;;;;;3.75;3.75;;;;;22.09;55.73;101057.97;5058547;28;50995;-53
2021/07/14 03:48:47;;;;;;;;;5.00;5.00;;;;;22.07;55.64;101057.38;5057600;28;51346;-52
2021/07/14 03:51:15;;;;;;;;;4.00;4.00;;;;;22.06;55.56;101050.13;5057331;28;51125;-54
2021/07/14 03:53:41;;;;;;;;;3.75;3.75;;;;;22.06;55.08;101052.88;5057033;28;51079;-52
2021/07/14 03:56:07;;;;;;;;;4.75;4.00;;;;;22.05;55.25;101063.09;5056691;28;51148;-53
2021/07/14 03:58:32;;;;;;;;;8.25;4.75;;;;;22.05;55.62;101063.09;5058457;28;51380;-54
2021/07/14 04:00:58;;;;;;;;;4.00;4.00;;;;;22.04;55.53;101071.59;5057053;28;51819;-54
2021/07/14 04:03:27;;;;;;;;;6.00;5.00;;;;;22.05;55.23;101073.28;5063782;28;50947;-54
2021/07/14 04:06:03;;;;;;;;;5.00;5.00;;;;;22.04;55.61;101074.34;5077580;28;51499;-55
2021/07/14 04:08:36;;;;;;;;;5.50;5.00;;;;;22.03;55.13;101069.91;5076629;28;51312;-54
2021/07/14 04:11:01;;;;;;;;;7.75;5.75;;;;;22.02;55.41;101071.81;5076541;28;51114;-55
2021/07/14 04:13:26;;;;;;;;;6.50;5.00;;;;;22.02;55.44;101070.97;5076588;28;51170;-55
2021/07/14 04:15:53;;;;;;;;;5.75;4.25;;;;;22.00;55.02;101070.38;5076830;28;51086;-54
2021/07/14 04:18:18;;;;;;;;;5.00;4.00;;;;;22.01;55.50;101072.91;5074991;28;51433;-55
2021/07/14 04:20:43;;;;;;;;;5.25;4.50;;;;;21.99;55.65;101066.78;5076431;28;57469;-54
2021/07/14 04:23:09;;;;;;;;;4.75;4.75;;;;;22.00;55.13;101073.97;5076560;28;51118;-51
2021/07/14 04:25:35;;;;;;;;;4.00;4.00;;;;;21.99;54.96;101074.16;5076531;28;51142;-55
2021/07/14 04:28:00;;;;;;;;;5.00;3.75;;;;;21.99;54.96;101072.28;5076704;28;51166;-55
2021/07/14 04:30:26;;;;;;;;;6.75;5.00;;;;;21.97;55.11;101066.13;5074468;28;50886;-53
2021/07/14 04:32:51;;;;;;;;;6.25;6.25;;;;;21.98;55.02;101066.97;5076000;28;50964;-54
2021/07/14 04:35:17;;;;;;;;;6.75;5.25;;;;;21.97;55.36;101066.13;5074743;28;51093;-55
2021/07/14 04:37:43;;;;;;;;;6.25;5.25;;;;;21.97;55.34;101079.91;5056418;28;51394;-54
2021/07/14 04:40:10;;;;;;;;;6.25;5.75;;;;;21.97;55.57;101076.31;5056771;28;51846;-49
2021/07/14 04:42:35;;;;;;;;;6.75;4.75;;;;;21.95;55.06;101073.78;5056129;28;51015;-54
2021/07/14 04:45:00;;;;;;;;;7.50;5.25;;;;;21.96;55.31;101069.13;5055858;28;51201;-55
2021/07/14 04:47:25;;;;;;;;;6.00;3.75;;;;;21.95;55.40;101081.22;5055928;28;50903;-54
2021/07/14 04:49:51;;;;;;;;;5.00;5.00;;;;;21.95;55.27;101071.03;5056823;28;51708;-52
2021/07/14 04:52:16;;;;;;;;;2.25;1.25;;;;;21.93;55.50;101081.44;5055879;28;51054;-55
2021/07/14 04:54:42;;;;;;;;;3.75;3.50;;;;;21.93;55.11;101081.44;5055646;28;51139;-53
2021/07/14 04:57:09;;;;;;;;;5.00;5.00;;;;;21.93;55.45;101086.97;5055452;28;51225;-51
2021/07/14 04:59:35;;;;;;;;;5.25;5.00;;;;;21.92;55.09;101088.03;5055701;28;51306;-54
2021/07/14 05:02:01;;;;;;;;;5.25;5.25;;;;;21.92;55.13;101092.72;5038127;28;51145;-53
2021/07/14 05:04:27;;;;;;;;;5.50;5.50;;;;;21.91;55.56;101100.16;5071365;28;51065;-54
2021/07/14 05:06:52;;;;;;;;;5.75;5.50;;;;;21.91;55.41;101094.63;5076202;28;50995;-52
2021/07/14 05:09:17;;;;;;;;;6.00;5.00;;;;;21.89;54.92;101097.63;5075685;28;51717;-53
2021/07/14 05:11:43;;;;;;;;;5.75;5.00;;;;;21.90;55.42;101092.94;5067735;28;51028;-50
2021/07/14 05:14:08;;;;;;;;;6.50;4.50;;;;;21.90;55.55;101104.81;5061841;28;51272;-53
2021/07/14 05:16:33;;;;;;;;;6.50;6.00;;;;;21.89;55.17;101103.13;5064414;28;51693;-55
2021/07/14 05:19:02;;;;;;;;;7.50;4.00;;;;;21.89;55.27;101094.88;5054793;28;51879;-54
2021/07/14 05:21:27;;;;;;;;;6.50;5.00;;;;;21.89;55.24;101099.53;5056375;28;51383;-55
2021/07/14 05:23:53;;;;;;;;;7.50;7.00;;;;;21.88;55.76;101106.09;5055645;28;51110;-55
2021/07/14 05:26:18;;;;;;;;;5.00;4.75;;;;;21.88;55.26;101106.97;5055473;28;51164;-51
2021/07/14 05:28:44;;;;;;;;;6.75;6.25;;;;;21.87;55.80;101105.25;5055129;28;52425;-53
2021/07/14 05:31:09;;;;;;;;;7.75;5.75;;;;;21.87;55.39;101112.69;5062410;28;51518;-54
2021/07/14 05:33:35;;;;;;;;;6.00;5.00;;;;;21.87;55.86;101118.19;5061466;28;51445;-55
2021/07/14 05:36:00;;;;;;;;;5.25;5.25;;;;;21.87;55.96;101110.78;5058195;28;50991;-55
2021/07/14 05:38:25;;;;;;;;;9.75;8.00;;;;;21.88;55.94;101100.56;5075335;28;52102;-52
2021/07/14 05:40:51;;;;;;;;;9.00;8.75;;;;;21.87;55.73;101109.94;5075591;28;51124;-53
2021/07/14 05:43:17;;;;;;;;;9.50;6.75;;;;;21.87;56.10;101116.28;5068837;28;51250;-50
2021/07/14 05:45:43;;;;;;;;;9.75;8.50;;;;;21.87;56.00;101110.78;5055252;28;51207;-54
2021/07/14 05:48:08;;;;;;;;;8.00;7.25;;;;;21.86;55.76;101111.84;5054687;28;51136;-54
2021/07/14 05:50:35;;;;;;;;;7.50;6.00;;;;;21.86;55.68;101103.56;5055202;28;51069;-51
2021/07/14 05:53:00;;;;;;;;;8.00;6.25;;;;;21.87;55.67;101109.94;5055207;28;51241;-54
2021/07/14 05:55:25;;;;;;;;;5.75;5.25;;;;;21.86;56.06;101111.84;5055837;28;51040;-54
2021/07/14 05:57:53;;;;;;;;;7.00;5.50;;;;;21.86;55.47;101114.59;5054849;28;51869;-57
2021/07/14 06:00:19;;;;;;;;;8.25;8.00;;;;;21.86;55.52;101114.59;5054802;28;51397;-54
2021/07/14 06:02:44;;;;;;;;;6.00;5.50;;;;;21.86;55.45;101125.63;5056127;28;51193;-54
2021/07/14 06:05:10;;;;;;;;;5.25;5.25;;;;;21.85;55.57;101121.19;5067715;28;51230;-53
2021/07/14 06:07:36;;;;;;;;;6.50;5.25;;;;;21.85;55.75;101123.94;5074655;28;51937;-57
2021/07/14 06:10:03;;;;;;;;;5.50;5.25;;;;;21.84;55.65;101122.25;5074876;28;51093;-54
2021/07/14 06:12:28;;;;;;;;;4.25;3.75;;;;;21.84;55.61;101125.00;5074771;28;51036;-55
2021/07/14 06:14:53;;;;;;;;;7.00;7.00;;;;;21.85;55.92;101126.69;5074692;28;51316;-55
2021/07/14 06:17:19;;;;;;;;;6.00;5.00;;;;;21.84;55.89;101127.78;5074490;28;51092;-54
2021/07/14 06:19:44;;;;;;;;;5.00;4.75;;;;;21.84;55.45;101122.25;5074982;28;51089;-53
2021/07/14 06:22:10;;;;;;;;;11.00;6.00;;;;;21.83;55.27;101134.34;5075014;28;51108;-54
2021/07/14 06:24:38;;;;;;;;;5.00;5.00;;;;;21.83;55.81;101128.84;5075071;28;50944;-49
2021/07/14 06:27:03;;;;;;;;;6.25;5.75;;;;;21.83;55.80;101111.47;5057018;28;52813;-54
2021/07/14 06:29:29;;;;;;;;;5.75;5.00;;;;;21.82;55.64;101129.91;5054562;28;51034;-55
2021/07/14 06:31:54;;;;;;;;;6.50;5.00;;;;;21.82;55.59;101132.69;5054063;28;51240;-53
2021/07/14 06:34:19;;;;;;;;;5.50;5.00;;;;;21.82;55.33;101134.59;5054768;28;51158;-54
2021/07/14 06:36:45;;;;;;;;;7.25;6.00;;;;;21.82;55.06;101132.69;5059280;28;51056;-54
2021/07/14 06:39:11;;;;;;;;;5.00;5.00;;;;;21.81;55.15;101136.50;5074843;28;51238;-55
2021/07/14 06:41:36;;;;;;;;;7.00;5.25;;;;;21.81;55.10;101139.25;5074652;28;51144;-52
2021/07/14 06:44:03;;;;;;;;;10.00;7.75;;;;;21.80;55.08;101137.56;5074982;28;50937;-52
2021/07/14 06:46:29;;;;;;;;;10.25;8.00;;;;;21.80;55.70;101148.59;5055054;28;52895;-53
2021/07/14 06:48:55;;;;;;;;;5.75;5.75;;;;;21.80;55.13;101148.59;5057408;28;51211;-50
2021/07/14 06:51:21;;;;;;;;;7.75;5.75;;;;;21.80;55.35;101153.28;5058067;28;51008;-53
2021/07/14 06:53:47;;;;;;;;;6.50;5.00;;;;;21.78;55.06;101153.50;5057986;28;50934;-55
2021/07/14 06:56:13;;;;;;;;;4.75;4.25;;;;;21.78;55.34;101148.00;5057156;28;51125;-54
2021/07/14 06:58:40;;;;;;;;;4.50;4.50;;;;;21.78;55.33;101138.84;5065194;28;51415;-54
2021/07/14 07:01:06;;;;;;;;;5.25;3.75;;;;;21.77;55.13;101140.75;5056805;28;51060;-55
2021/07/14 07:03:33;;;;;;;;;6.50;5.25;;;;;21.78;55.03;101136.97;5068718;28;51291;-54
2021/07/14 07:05:59;;;;;;;;;7.50;4.00;;;;;21.78;55.50;101138.84;5075377;28;51126;-56
2021/07/14 07:08:24;;;;;;;;;6.00;4.00;;;;;21.77;55.62;101137.16;5074601;28;51103;-58
2021/07/14 07:10:49;;;;;;;;;4.75;3.50;;;;;21.76;55.61;101138.22;5058772;28;51056;-60
2021/07/14 07:13:18;;;;;;;;;7.75;5.75;;;;;21.74;55.85;101143.13;5065968;28;51040;-58
2021/07/14 07:15:47;;;;;;;;;5.50;5.00;;;;;21.72;55.54;101154.38;5067505;28;51209;-58
2021/07/14 07:18:13;;;;;;;;;5.25;5.25;;;;;21.72;55.72;101151.63;5070643;28;51365;-58
2021/07/14 07:20:39;;;;;;;;;4.25;3.75;;;;;21.71;56.05;101149.94;5070687;28;51325;-58
2021/07/14 07:23:05;;;;;;;;;7.25;7.25;;;;;21.70;55.74;101147.41;5073715;27;51129;-58
2021/07/14 07:25:31;;;;;;;;;6.25;5.00;;;;;21.70;56.17;101150.16;5070399;28;51779;-58
2021/07/14 07:27:59;;;;;;;;;6.75;5.25;;;;;21.68;55.68;101147.63;5073309;28;51217;-58
2021/07/14 07:30:24;;;;;;;;;7.00;5.75;;;;;21.68;55.74;101149.56;5069388;28;51226;-58
2021/07/14 07:32:50;;;;;;;;;7.00;5.50;;;;;21.67;55.74;101148.69;5071280;28;51119;-58
2021/07/14 07:35:15;;;;;;;;;5.00;4.25;;;;;21.68;56.31;101152.31;5074284;28;51030;-58
2021/07/14 07:37:41;;;;;;;;;5.75;4.25;;;;;21.66;56.09;101147.00;5076138;28;51175;-58
2021/07/14 07:40:07;;;;;;;;;6.75;5.00;;;;;21.67;55.96;101150.59;5075953;27;51134;-59
2021/07/14 07:42:32;;;;;;;;;6.00;6.00;;;;;21.66;55.91;101152.50;5074215;28;51028;-59
2021/07/14 07:44:58;;;;;;;;;7.50;5.75;;;;;21.66;55.80;101149.75;5055671;28;52203;-58
2021/07/14 07:47:24;;;;;;;;;6.50;6.00;;;;;21.65;56.30;101144.47;5070511;28;51128;-59
2021/07/14 07:49:50;;;;;;;;;7.25;7.25;;;;;21.64;56.13;101151.91;5075406;28;51126;-58
2021/07/14 07:52:18;;;;;;;;;6.75;4.50;;;;;21.63;56.20;101147.44;5072579;28;51114;-58
2021/07/14 07:54:44;;;;;;;;;4.50;4.50;;;;;21.63;56.20;101152.97;5071459;28;51181;-58
2021/07/14 07:57:10;;;;;;;;;5.50;5.00;;;;;21.62;56.13;101148.53;5074352;27;51307;-54
2021/07/14 07:59:35;;;;;;;;;4.50;4.50;;;;;21.62;55.99;101162.31;5074558;28;52181;-59
2021/07/14 08:02:03;;;;;;;;;5.25;5.25;;;;;21.63;56.38;101163.16;5071844;28;51276;-58
2021/07/14 08:04:28;;;;;;;;;5.75;5.00;;;;;21.62;55.81;101162.31;5072132;28;52251;-59
2021/07/14 08:06:53;;;;;;;;;4.50;4.50;;;;;21.60;56.16;101165.28;5068306;28;51187;-57
2021/07/14 08:09:19;;;;;;;;;5.00;5.00;;;;;21.62;56.08;101165.06;5063832;28;51261;-58
2021/07/14 08:11:44;;;;;;;;;4.75;4.75;;;;;21.62;56.04;101165.06;5072625;28;51043;-59
2021/07/14 08:14:10;;;;;;;;;8.00;7.25;;;;;21.62;55.71;101156.78;5073279;28;51893;-58
2021/07/14 08:16:35;;;;;;;;;6.00;5.00;;;;;21.61;56.19;101166.13;5066000;28;51258;-58
2021/07/14 08:19:01;;;;;;;;;6.75;5.75;;;;;21.60;55.56;101165.28;5075358;28;51744;-58
2021/07/14 08:21:26;;;;;;;;;8.00;7.00;;;;;21.60;55.56;101170.81;5072480;28;51119;-59
2021/07/14 08:23:52;;;;;;;;;8.50;6.00;;;;;21.60;55.52;101179.06;5073674;28;51100;-59
2021/07/14 08:26:18;;;;;;;;;6.50;5.25;;;;;21.60;55.94;101179.06;5074559;28;51539;-58
2021/07/14 08:28:43;;;;;;;;;8.75;6.50;;;;;21.60;55.69;101172.72;5074948;28;51304;-58
2021/07/14 08:31:09;;;;;;;;;6.50;6.25;;;;;21.60;55.68;101181.81;5073994;28;51723;-58
2021/07/14 08:33:35;;;;;;;;;6.25;5.25;;;;;21.59;55.28;101179.28;5073517;27;51809;-59
2021/07/14 08:36:00;;;;;;;;;10.25;9.00;;;;;21.57;55.61;101176.78;5069558;28;51334;-59
2021/07/14 08:38:26;;;;;;;;;6.25;6.25;;;;;21.58;55.56;101188.63;5067439;28;51275;-58
2021/07/14 08:40:52;;;;;;;;;9.25;6.25;;;;;21.58;55.23;101188.63;5073100;28;51093;-58
2021/07/14 08:43:21;;;;;;;;;6.75;6.50;;;;;21.57;55.15;101193.31;5072145;28;51091;-58
2021/07/14 08:45:47;;;;;;;;;8.50;7.00;;;;;21.56;55.46;101196.25;5068305;28;51394;-59
2021/07/14 08:48:14;;;;;;;;;8.50;7.75;;;;;21.56;55.30;101193.50;5071115;28;51271;-58
2021/07/14 08:50:44;;;;;;;;;13.00;11.50;;;;;21.54;55.69;101193.72;5069602;28;52583;-58
2021/07/14 08:53:16;;;;;;;;;13.25;13.00;;;;;21.55;56.04;101200.09;5072013;28;51868;-58
2021/07/14 08:55:43;;;;;;;;;10.25;8.50;;;;;21.54;55.93;101201.16;5051812;28;51526;-57
2021/07/14 08:58:12;;;;;;;;;9.00;6.00;;;;;21.55;55.57;101202.84;5072469;28;51119;-59
2021/07/14 09:00:37;;;;;;;;;7.00;7.00;;;;;21.55;55.46;101200.09;5074421;28;51122;-58
2021/07/14 09:03:03;;;;;;;;;5.25;5.25;;;;;21.54;56.00;101207.50;5074314;28;51218;-58
2021/07/14 09:05:29;;;;;;;;;5.50;5.50;;;;;21.53;55.87;101204.97;5073545;28;51097;-58
2021/07/14 09:07:54;;;;;;;;;6.25;5.75;;;;;21.53;55.60;101202.22;5074985;28;51177;-58
2021/07/14 09:10:19;;;;;;;;;7.00;5.25;;;;;21.52;55.55;101206.88;5069951;28;51291;-58
2021/07/14 09:12:46;;;;;;;;;5.00;5.00;;;;;21.52;55.81;101203.28;5073903;28;51093;-58
2021/07/14 09:15:15;;;;;;;;;5.50;5.00;;;;;21.50;55.70;101211.78;5073964;28;51258;-58
2021/07/14 09:17:49;;;;;;;;;4.75;4.75;;;;;21.48;55.21;101208.41;5074356;28;50962;-58
2021/07/14 09:20:19;;;;;;;;;3.75;3.50;;;;;21.49;55.46;101203.75;5075125;28;51083;-58
2021/07/14 09:22:44;;;;;;;;;4.00;4.00;;;;;21.48;55.48;101202.91;5072982;28;52887;-58
2021/07/14 09:25:17;;;;;;;;;7.50;6.25;;;;;21.47;54.91;101206.72;5073905;28;50991;-58
2021/07/14 09:27:58;;;;;;;;;7.25;4.50;;;;;21.45;54.91;101202.47;5074370;28;51039;-58
2021/07/14 09:30:26;;;;;;;;;5.50;4.50;;;;;21.45;55.11;101205.22;5072872;28;51361;-57
2021/07/14 09:32:57;;;;;;;;;6.00;4.00;;;;;21.44;55.26;101201.63;5073758;28;51151;-57
2021/07/14 09:35:46;;;;;;;;;5.25;5.25;;;;;21.46;54.93;101209.66;5074342;27;51456;-58
2021/07/14 09:38:14;;;;;;;;;6.00;5.00;;;;;21.46;54.99;101202.25;5069889;28;51029;-57
2021/07/14 09:40:42;;;;;;;;;4.75;4.25;;;;;21.47;54.89;101203.13;5073629;28;51829;-57
2021/07/14 09:43:14;;;;;;;;;5.25;5.25;;;;;21.47;55.15;101203.13;5073894;28;51060;-57
2021/07/14 09:45:45;;;;;;;;;6.00;6.00;;;;;21.47;54.67;101214.16;5073918;28;51315;-57
2021/07/14 09:48:19;;;;;;;;;5.50;5.50;;;;;21.48;54.76;101211.16;5072651;28;51047;-57
2021/07/14 09:50:48;;;;;;;;;3.50;3.50;;;;;21.48;54.78;101216.69;5073253;28;50944;-57
2021/07/14 09:53:19;;;;;;;;;5.75;4.00;;;;;21.48;55.06;101216.69;5073437;27;51681;-57
2021/07/14 09:55:45;;;;;;;;;4.75;4.75;;;;;21.47;54.53;101216.91;5072603;28;51650;-57
2021/07/14 09:58:22;;;;;;;;;4.00;4.00;;;;;21.47;54.71;101216.91;5067277;28;50972;-57
2021/07/14 10:00:51;;;;;;;;;6.00;5.00;;;;;21.45;54.97;101214.34;5065290;28;51468;-59
2021/07/14 10:03:22;;;;;;;;;5.00;4.75;;;;;21.48;54.90;101215.84;5068022;28;51969;-59
2021/07/14 10:05:48;;;;;;;;;7.25;3.75;;;;;21.49;54.56;101220.28;5072321;28;51174;-59
2021/07/14 10:08:16;;;;;;;;;4.75;3.75;;;;;21.52;54.92;101217.06;5073062;28;51031;-59
2021/07/14 10:10:41;;;;;;;;;4.00;3.00;;;;;21.53;54.68;101218.75;5069830;27;51142;-58
2021/07/14 10:13:10;;;;;;;;;5.00;5.00;;;;;21.55;54.86;101222.13;5062785;28;51288;-58
2021/07/14 10:15:36;;;;;;;;;3.75;3.75;;;;;21.56;54.96;101229.34;5064386;28;51316;-57
2021/07/14 10:18:02;;;;;;;;;4.75;4.25;;;;;21.57;54.89;101220.00;5060967;28;51117;-59
2021/07/14 10:20:33;;;;;;;;;5.00;4.75;;;;;21.59;55.04;101224.25;5063411;28;51101;-59
2021/07/14 10:23:01;;;;;;;;;5.00;5.00;;;;;21.60;54.87;101233.38;5073401;28;52847;-56
2021/07/14 10:25:28;;;;;;;;;6.25;4.75;;;;;21.63;54.98;101229.31;5075926;28;51234;-57
2021/07/14 10:27:55;;;;;;;;;5.25;5.25;;;;;21.64;54.57;101229.09;5077212;28;51170;-57
2021/07/14 10:30:22;;;;;;;;;6.75;5.00;;;;;21.66;54.90;101224.19;5076473;28;51186;-57
2021/07/14 10:32:49;;;;;;;;;4.00;4.00;;;;;21.68;54.78;101226.75;5076716;28;52064;-57
2021/07/14 10:35:17;;;;;;;;;5.50;5.50;;;;;21.69;54.85;101226.53;5077971;28;51259;-58
2021/07/14 10:37:59;;;;;;;;;4.00;4.00;;;;;21.71;54.40;101229.91;5077922;28;51035;-57
2021/07/14 10:40:26;;;;;;;;;5.00;4.00;;;;;21.74;55.08;101228.59;5077767;28;51227;-57
2021/07/14 10:42:52;;;;;;;;;4.75;4.75;;;;;21.75;54.95;101236.66;5077510;28;51163;-57
2021/07/14 10:45:19;;;;;;;;;4.25;3.00;;;;;21.78;54.55;101232.59;5077132;28;51376;-57
2021/07/14 10:47:46;;;;;;;;;5.75;5.00;;;;;21.79;54.29;101240.69;5077380;28;51215;-57
2021/07/14 10:50:14;;;;;;;;;6.75;4.25;;;;;21.82;54.92;101239.38;5077513;28;51138;-57
2021/07/14 10:52:40;;;;;;;;;5.25;5.00;;;;;21.84;54.51;101240.00;5070232;28;51817;-56
2021/07/14 10:55:08;;;;;;;;;4.00;4.00;;;;;21.86;54.94;101232.34;5063768;28;51361;-56
2021/07/14 10:57:36;;;;;;;;;6.50;5.25;;;;;21.87;54.37;101234.88;5076822;28;51520;-55
2021/07/14 11:00:07;;;;;;;;;4.00;3.75;;;;;21.88;54.91;101231.06;5077135;28;51186;-54
2021/07/14 11:02:41;;;;;;;;;5.00;4.75;;;;;21.91;54.37;101232.53;5061778;28;52718;-57
2021/07/14 11:05:08;;;;;;;;;7.00;4.00;;;;;21.92;54.55;101234.22;5055944;28;50973;-56
2021/07/14 11:07:42;;;;;;;;;6.50;6.00;;;;;21.95;54.31;101238.44;5056316;28;51077;-57
2021/07/14 11:10:31;;;;;;;;;6.25;6.25;;;;;21.96;54.81;101242.88;5056695;28;51056;-55
2021/07/14 11:13:29;;;;;;;;;6.00;5.00;;;;;21.97;54.74;101241.81;5056027;28;51217;-56
2021/07/14 11:15:56;;;;;;;;;5.00;5.00;;;;;21.98;54.87;101236.06;5056296;28;51570;-56
2021/07/14 11:18:30;;;;;;;;;4.00;4.00;;;;;22.00;54.77;101238.63;5056758;28;51599;-57
2021/07/14 11:20:59;;;;;;;;;6.00;5.00;;;;;22.02;54.40;101240.09;5056865;28;51364;-57
2021/07/14 11:23:27;;;;;;;;;5.75;5.75;;;;;22.04;54.29;101242.63;5056667;28;51876;-57
2021/07/14 11:25:55;;;;;;;;;4.00;4.00;;;;;22.05;54.89;101238.78;5056263;28;51099;-57
2021/07/14 11:28:25;;;;;;;;;2.00;2.00;;;;;22.08;54.40;101235.63;5056985;28;51028;-57
2021/07/14 11:30:52;;;;;;;;;0.00;0.00;;;;;22.08;54.38;101224.56;5056223;28;51287;-57